Time;durP1;ratioP1;P1;durP2;ratioP2;P2;SDS_P1;SDS_P2;PMS_P1;PMS_P2;Temp;Humidity;BMP_temperature;BMP_pressure;BME280_temperature;BME280_humidity;BME280_pressure;Samples;Min_cycle;Max_cycle;Signal;HPM_P1;HPM_P2
2022/09/04 00:01:48;;;;;;;5.55;1.10;;;17.90;44.30;;;;;;4988167;28;20046;-71
2022/09/04 00:04:28;;;;;;;2.55;1.25;;;17.90;44.30;;;;;;4983716;28;20067;-69
2022/09/04 00:07:24;;;;;;;3.15;1.50;;;17.80;44.20;;;;;;4976854;28;20490;-70
2022/09/04 00:10:02;;;;;;;3.38;1.40;;;17.80;44.20;;;;;;5001113;28;20062;-70
2022/09/04 00:12:33;;;;;;;4.85;1.52;;;17.80;44.30;;;;;;4974901;28;20054;-70
2022/09/04 00:15:12;;;;;;;4.03;1.40;;;17.80;44.30;;;;;;4967663;28;20038;-70
2022/09/04 00:17:53;;;;;;;3.70;1.10;;;17.80;44.20;;;;;;5010206;28;20050;-70
2022/09/04 00:20:41;;;;;;;3.20;1.48;;;17.80;44.10;;;;;;4966632;28;20049;-70
2022/09/04 00:23:12;;;;;;;3.90;1.35;;;17.70;44.20;;;;;;4990816;28;20371;-70
2022/09/04 00:25:51;;;;;;;3.03;1.30;;;17.70;44.30;;;;;;4989220;28;20064;-70
2022/09/04 00:28:33;;;;;;;4.28;1.60;;;17.70;44.20;;;;;;4962790;28;20077;-71
2022/09/04 00:31:19;;;;;;;3.97;1.40;;;17.70;44.20;;;;;;4974526;28;20101;-71
2022/09/04 00:34:00;;;;;;;3.22;1.50;;;17.70;44.20;;;;;;4978995;28;20403;-71
2022/09/04 00:36:28;;;;;;;4.88;1.25;;;17.70;44.30;;;;;;4994430;28;20039;-71
2022/09/04 00:39:01;;;;;;;3.17;1.20;;;17.60;44.40;;;;;;4976428;28;20486;-69
2022/09/04 00:41:57;;;;;;;3.10;1.50;;;17.60;44.30;;;;;;4974984;28;20121;-69
2022/09/04 00:44:26;;;;;;;3.35;1.13;;;17.60;44.30;;;;;;4977273;28;20066;-68
2022/09/04 00:47:28;;;;;;;3.03;1.67;;;17.60;44.30;;;;;;4989598;28;20053;-68
2022/09/04 00:50:06;;;;;;;4.25;1.45;;;17.60;44.40;;;;;;4985674;28;20240;-68
2022/09/04 00:53:08;;;;;;;3.45;1.50;;;17.60;44.50;;;;;;4982139;28;20088;-68
2022/09/04 00:55:47;;;;;;;9.05;1.75;;;17.60;44.40;;;;;;4977634;28;20042;-68
2022/09/04 00:59:00;;;;;;;4.85;1.55;;;17.50;44.40;;;;;;4975336;28;20505;-67
2022/09/04 01:01:27;;;;;;;3.30;1.52;;;17.50;44.40;;;;;;4987728;28;20129;-66
2022/09/04 01:03:58;;;;;;;3.63;1.20;;;17.50;44.50;;;;;;4977426;28;20038;-66
2022/09/04 01:06:36;;;;;;;2.63;1.42;;;17.50;44.50;;;;;;4982592;28;20043;-66
2022/09/04 01:09:50;;;;;;;3.38;1.25;;;17.50;44.60;;;;;;4987303;28;20553;-66
2022/09/04 01:12:31;;;;;;;3.03;1.30;;;17.40;44.50;;;;;;4931297;28;20054;-66
2022/09/04 01:15:13;;;;;;;3.15;1.02;;;17.40;44.70;;;;;;4976810;28;20038;-66
2022/09/04 01:17:50;;;;;;;4.97;1.70;;;17.30;44.70;;;;;;5006066;28;20490;-66
2022/09/04 01:20:25;;;;;;;4.30;1.45;;;17.30;44.70;;;;;;4993658;28;20097;-66
2022/09/04 01:23:06;;;;;;;1.95;1.20;;;17.30;44.80;;;;;;4993086;28;20097;-66
2022/09/04 01:25:59;;;;;;;3.95;1.30;;;17.30;44.90;;;;;;4975377;28;20095;-66
2022/09/04 01:28:46;;;;;;;5.82;1.65;;;17.30;45.00;;;;;;4991219;28;20046;-66
2022/09/04 01:31:30;;;;;;;3.00;1.45;;;17.20;45.00;;;;;;4993068;28;20046;-66
2022/09/04 01:34:27;;;;;;;3.40;1.38;;;17.20;45.10;;;;;;4990455;28;20042;-66
2022/09/04 01:37:00;;;;;;;2.72;1.35;;;17.30;45.10;;;;;;4957355;28;20042;-66
2022/09/04 01:39:29;;;;;;;3.75;1.35;;;17.20;45.20;;;;;;4977583;28;20057;-66
2022/09/04 01:42:17;;;;;;;5.68;1.48;;;17.10;45.20;;;;;;4991343;28;20066;-66
2022/09/04 01:44:42;;;;;;;4.70;1.45;;;17.10;45.70;;;;;;4976343;28;20057;-66
2022/09/04 01:47:14;;;;;;;3.75;1.58;;;17.10;45.30;;;;;;4986113;28;20034;-66
2022/09/04 01:49:56;;;;;;;3.47;1.33;;;17.10;45.40;;;;;;4992900;28;20054;-66
2022/09/04 01:52:46;;;;;;;3.03;1.35;;;17.10;45.50;;;;;;4991413;28;20074;-66
2022/09/04 01:55:30;;;;;;;5.15;1.52;;;17.10;45.70;;;;;;4992431;28;20108;-66
2022/09/04 01:57:56;;;;;;;;;;;17.10;45.70;;;;;;4978850;28;20046;-66
2022/09/04 02:00:24;;;;;;;2.83;1.10;;;17.00;45.60;;;;;;4991712;28;19973;-66
2022/09/04 02:02:55;;;;;;;2.10;1.20;;;17.00;45.80;;;;;;4987249;28;20051;-66
2022/09/04 02:05:55;;;;;;;3.17;1.50;;;16.90;45.90;;;;;;4974233;28;20070;-66
2022/09/04 02:08:34;;;;;;;2.22;1.30;;;16.90;46.00;;;;;;4989511;28;20035;-66
2022/09/04 02:11:21;;;;;;;2.30;1.40;;;16.90;46.20;;;;;;4972992;28;20483;-66
2022/09/04 02:14:09;;;;;;;3.42;1.42;;;16.90;46.10;;;;;;4973518;28;20517;-66
2022/09/04 02:17:11;;;;;;;2.10;1.17;;;16.80;46.20;;;;;;5007708;28;20402;-66
2022/09/04 02:19:47;;;;;;;1.77;1.38;;;16.80;46.40;;;;;;4981365;28;20132;-66
2022/09/04 02:22:18;;;;;;;3.83;1.52;;;16.70;46.50;;;;;;4973165;28;20170;-66
2022/09/04 02:24:54;;;;;;;2.25;1.48;;;16.70;46.70;;;;;;4973251;28;20054;-66
2022/09/04 02:27:38;;;;;;;2.75;1.55;;;16.70;46.90;;;;;;4991695;28;20141;-66
2022/09/04 02:30:10;;;;;;;4.32;1.27;;;16.60;46.90;;;;;;4991581;28;20398;-66
2022/09/04 02:33:01;;;;;;;3.92;1.40;;;16.60;46.90;;;;;;4991917;28;20046;-66
2022/09/04 02:36:14;;;;;;;4.50;1.52;;;16.50;47.10;;;;;;4976463;28;20046;-67
2022/09/04 02:38:51;;;;;;;2.78;1.40;;;16.50;47.20;;;;;;4934049;29;20102;-67
2022/09/04 02:41:38;;;;;;;3.15;2.00;;;16.40;47.20;;;;;;4936520;29;20090;-67
2022/09/04 02:44:32;;;;;;;3.90;1.58;;;16.40;47.40;;;;;;4965370;28;20525;-67
2022/09/04 02:47:11;;;;;;;2.88;1.50;;;16.40;47.50;;;;;;4976432;28;20046;-67
2022/09/04 02:50:06;;;;;;;4.78;1.65;;;16.30;47.50;;;;;;4980081;28;20074;-66
2022/09/04 02:52:45;;;;;;;3.13;1.83;;;16.30;47.70;;;;;;4972701;28;20054;-66
2022/09/04 02:55:29;;;;;;;2.97;1.45;;;16.30;47.70;;;;;;4989124;28;20118;-66
2022/09/04 02:58:14;;;;;;;2.78;1.58;;;16.20;47.80;;;;;;4958540;28;20038;-66
2022/09/04 03:01:03;;;;;;;2.10;1.65;;;16.20;47.90;;;;;;4982390;28;20042;-66
2022/09/04 03:03:39;;;;;;;3.08;1.52;;;16.20;48.10;;;;;;4986101;28;20494;-66
2022/09/04 03:06:10;;;;;;;3.50;1.48;;;16.10;48.20;;;;;;5005143;28;20046;-66
2022/09/04 03:08:47;;;;;;;3.53;1.45;;;16.00;48.30;;;;;;5007722;28;20601;-66
2022/09/04 03:11:26;;;;;;;2.75;1.40;;;16.00;48.50;;;;;;4990328;28;20401;-66
2022/09/04 03:14:01;;;;;;;5.50;2.03;;;16.00;48.50;;;;;;4992165;28;20105;-66
2022/09/04 03:16:50;;;;;;;4.53;1.50;;;16.00;48.50;;;;;;4991710;28;20049;-66
2022/09/04 03:19:38;;;;;;;4.38;1.70;;;16.00;48.50;;;;;;4984581;28;20053;-66
2022/09/04 03:22:16;;;;;;;4.32;1.88;;;16.00;48.60;;;;;;4976517;28;20380;-66
2022/09/04 03:25:19;;;;;;;4.03;1.45;;;15.90;48.70;;;;;;4976491;28;20049;-66
2022/09/04 03:27:45;;;;;;;2.38;1.48;;;15.90;48.70;;;;;;4983635;28;20046;-66
2022/09/04 03:30:13;;;;;;;2.63;1.73;;;15.90;48.90;;;;;;4982734;28;20042;-66
2022/09/04 03:33:02;;;;;;;4.63;1.60;;;15.90;49.00;;;;;;4977331;28;20493;-66
2022/09/04 03:35:36;;;;;;;4.32;1.50;;;15.80;49.10;;;;;;4976681;28;20043;-66
2022/09/04 03:38:19;;;;;;;3.50;1.50;;;15.80;49.20;;;;;;4986363;28;20375;-66
2022/09/04 03:41:13;;;;;;;3.72;1.70;;;15.80;49.40;;;;;;4992609;28;20065;-66
2022/09/04 03:43:42;;;;;;;2.72;1.60;;;15.70;49.50;;;;;;4977058;28;20054;-66
2022/09/04 03:46:20;;;;;;;4.00;1.80;;;15.70;49.50;;;;;;4995292;28;20046;-66
2022/09/04 03:49:30;;;;;;;5.05;1.63;;;15.70;49.70;;;;;;4979582;28;20069;-66
2022/09/04 03:52:09;;;;;;;3.30;1.75;;;15.70;49.60;;;;;;4987840;28;20085;-66
2022/09/04 03:54:49;;;;;;;2.90;1.40;;;15.60;49.70;;;;;;4994438;28;20046;-66
2022/09/04 03:57:30;;;;;;;2.22;1.50;;;15.60;49.80;;;;;;4990628;28;20533;-66
2022/09/04 04:00:08;;;;;;;2.08;1.52;;;15.70;50.00;;;;;;4976833;28;20778;-66
2022/09/04 04:03:20;;;;;;;4.32;2.15;;;15.60;50.00;;;;;;4975730;28;20042;-66
2022/09/04 04:05:59;;;;;;;2.80;1.75;;;15.50;50.10;;;;;;4970837;28;20046;-66
2022/09/04 04:08:45;;;;;;;2.67;1.80;;;15.50;50.20;;;;;;4993491;28;20046;-66
2022/09/04 04:11:33;;;;;;;4.50;2.30;;;15.50;50.40;;;;;;4992720;28;20077;-66
2022/09/04 04:13:59;;;;;;;6.05;1.80;;;15.50;50.50;;;;;;4988748;28;20038;-66
2022/09/04 04:16:43;;;;;;;4.50;2.10;;;15.40;50.60;;;;;;5007935;28;20120;-66
2022/09/04 04:19:34;;;;;;;3.28;2.00;;;15.40;50.70;;;;;;4959216;28;20098;-67
2022/09/04 04:22:24;;;;;;;4.70;2.00;;;15.40;50.80;;;;;;4978265;28;20122;-68
2022/09/04 04:25:11;;;;;;;2.85;1.75;;;15.30;50.90;;;;;;4979625;28;20051;-67
2022/09/04 04:28:06;;;;;;;3.55;2.20;;;15.30;50.90;;;;;;4983768;28;20114;-67
2022/09/04 04:30:45;;;;;;;6.38;2.42;;;15.30;50.90;;;;;;4976083;28;20046;-66
2022/09/04 04:33:44;;;;;;;3.30;2.20;;;15.20;51.00;;;;;;4976789;28;20047;-66
2022/09/04 04:36:48;;;;;;;4.22;1.88;;;15.20;51.10;;;;;;4992087;28;20034;-66
2022/09/04 04:39:43;;;;;;;3.63;1.80;;;15.20;51.10;;;;;;4974701;28;20459;-66
2022/09/04 04:42:27;;;;;;;;;;;15.20;51.20;;;;;;4976377;28;20047;-66
2022/09/04 04:48:22;;;;;;;4.82;2.03;;;15.10;51.30;;;;;;5006858;28;20097;-66
2022/09/04 04:51:07;;;;;;;2.95;1.80;;;15.10;51.40;;;;;;4967174;28;20059;-66
2022/09/04 04:53:54;;;;;;;3.80;1.80;;;15.10;51.50;;;;;;4982508;28;20049;-66
2022/09/04 04:56:33;;;;;;;3.78;1.70;;;15.10;51.50;;;;;;4978019;28;20053;-66
2022/09/04 04:59:37;;;;;;;4.03;2.42;;;15.10;51.60;;;;;;4993022;28;20046;-66
2022/09/04 05:02:06;;;;;;;4.22;2.17;;;15.10;51.70;;;;;;4945920;28;20070;-66
2022/09/04 05:04:47;;;;;;;3.50;1.85;;;15.10;51.70;;;;;;4986196;28;20048;-66
2022/09/04 05:07:34;;;;;;;4.15;1.90;;;15.10;51.80;;;;;;4991971;28;20045;-66
2022/09/04 05:10:19;;;;;;;4.85;2.22;;;15.10;51.80;;;;;;4974287;28;20058;-66
2022/09/04 05:13:15;;;;;;;9.60;3.67;;;15.10;51.90;;;;;;4976510;28;20054;-66
2022/09/04 05:15:59;;;;;;;3.58;2.25;;;15.10;52.00;;;;;;4974089;28;20057;-66
2022/09/04 05:18:34;;;;;;;3.53;1.80;;;15.10;52.00;;;;;;4981520;28;20046;-67
2022/09/04 05:21:18;;;;;;;5.93;2.22;;;15.10;52.10;;;;;;4974121;28;20396;-66
2022/09/04 05:23:57;;;;;;;3.00;1.80;;;15.10;52.10;;;;;;4975406;28;20065;-69
2022/09/04 05:26:38;;;;;;;4.28;1.85;;;15.10;52.20;;;;;;4974057;28;20089;-66
2022/09/04 05:29:12;;;;;;;3.60;2.03;;;15.10;52.20;;;;;;4986158;28;20109;-66
2022/09/04 05:32:12;;;;;;;4.65;2.33;;;15.10;52.30;;;;;;4992999;28;20057;-66
2022/09/04 05:35:03;;;;;;;3.08;1.88;;;15.10;52.30;;;;;;4985650;28;20407;-66
2022/09/04 05:37:49;;;;;;;3.22;1.95;;;15.10;52.30;;;;;;4975902;28;20050;-66
2022/09/04 05:40:23;;;;;;;3.78;2.45;;;15.10;52.40;;;;;;4976443;28;20106;-66
2022/09/04 05:43:01;;;;;;;5.78;2.47;;;15.20;52.40;;;;;;4992917;28;20052;-66
2022/09/04 05:45:27;;;;;;;4.07;2.30;;;15.20;52.50;;;;;;4977987;28;20058;-66
2022/09/04 05:48:34;;;;;;;4.95;2.10;;;15.20;52.40;;;;;;5008206;28;20103;-66
2022/09/04 05:51:05;;;;;;;2.90;1.92;;;15.20;52.50;;;;;;4962467;28;20450;-68
2022/09/04 05:54:10;;;;;;;3.15;2.10;;;15.30;52.50;;;;;;4974801;28;20042;-66
2022/09/04 05:57:03;;;;;;;4.60;2.83;;;15.40;52.60;;;;;;4981741;28;20045;-66
2022/09/04 05:59:52;;;;;;;4.97;2.10;;;15.40;52.50;;;;;;4987795;28;20181;-66
2022/09/04 06:02:33;;;;;;;3.67;2.35;;;15.40;52.50;;;;;;4992724;28;20053;-67
2022/09/04 06:05:07;;;;;;;4.82;2.33;;;15.50;52.50;;;;;;4984107;28;20093;-67
2022/09/04 06:08:16;;;;;;;5.78;2.40;;;15.50;52.40;;;;;;4976239;28;20557;-67
2022/09/04 06:10:54;;;;;;;4.25;2.47;;;15.60;52.30;;;;;;4973256;28;20049;-67
2022/09/04 06:13:38;;;;;;;5.00;1.92;;;15.60;52.30;;;;;;4988848;28;20053;-67
2022/09/04 06:16:25;;;;;;;4.82;2.20;;;15.70;52.20;;;;;;4990114;28;20073;-67
2022/09/04 06:19:17;;;;;;;5.38;2.30;;;15.80;52.10;;;;;;4984037;28;20186;-66
2022/09/04 06:21:55;;;;;;;4.95;2.20;;;15.90;52.00;;;;;;4989760;28;20109;-67
2022/09/04 06:24:23;;;;;;;4.57;2.35;;;15.90;52.00;;;;;;4990103;28;20446;-67
2022/09/04 06:27:15;;;;;;;6.05;2.92;;;16.00;51.90;;;;;;4982356;28;20065;-66
2022/09/04 06:30:00;;;;;;;4.93;2.45;;;16.10;51.90;;;;;;4992833;28;20401;-66
2022/09/04 06:32:26;;;;;;;4.03;2.20;;;16.20;51.90;;;;;;4974491;28;20039;-66
2022/09/04 06:35:31;;;;;;;3.42;2.50;;;16.30;51.90;;;;;;5004979;28;20545;-66
2022/09/04 06:38:06;;;;;;;3.30;2.25;;;16.40;51.80;;;;;;4991573;28;20479;-66
2022/09/04 06:40:42;;;;;;;4.90;2.20;;;16.50;51.70;;;;;;4992002;28;20067;-67
2022/09/04 06:43:33;;;;;;;8.40;2.15;;;16.60;51.60;;;;;;4975932;28;20054;-68
2022/09/04 06:46:18;;;;;;;4.93;1.98;;;16.80;51.50;;;;;;4980286;28;20121;-68
2022/09/04 06:49:05;;;;;;;4.93;2.08;;;17.00;51.50;;;;;;4991740;28;20034;-66
2022/09/04 06:51:56;;;;;;;4.80;1.90;;;17.20;51.10;;;;;;4989406;28;20399;-68
2022/09/04 06:54:31;;;;;;;4.18;2.30;;;17.30;51.10;;;;;;4979001;28;20089;-66
2022/09/04 06:57:27;;;;;;;4.00;2.55;;;17.50;50.80;;;;;;4985460;28;20042;-68
2022/09/04 07:00:11;;;;;;;7.93;2.53;;;17.70;50.70;;;;;;4986338;28;20050;-65
2022/09/04 07:02:51;;;;;;;3.55;1.98;;;17.80;50.40;;;;;;4993411;28;20112;-65
2022/09/04 07:05:33;;;;;;;5.85;2.30;;;17.90;50.40;;;;;;4987111;28;20050;-66
2022/09/04 07:08:26;;;;;;;6.07;2.78;;;18.10;50.20;;;;;;4977351;28;20039;-65
2022/09/04 07:11:24;;;;;;;8.55;2.58;;;18.20;49.90;;;;;;4976370;28;20130;-65
2022/09/04 07:14:18;;;;;;;5.03;2.28;;;18.40;49.70;;;;;;4977196;28;20050;-66
2022/09/04 07:16:55;;;;;;;3.08;2.20;;;18.40;49.80;;;;;;4984744;28;20049;-66
2022/09/04 07:19:48;;;;;;;3.15;1.90;;;18.60;49.60;;;;;;4995734;28;20042;-66
2022/09/04 07:22:45;;;;;;;5.72;2.63;;;18.70;49.60;;;;;;4998498;28;20050;-66
2022/09/04 07:25:29;;;;;;;3.47;1.98;;;18.90;49.50;;;;;;4977331;28;20039;-66
2022/09/04 07:28:14;;;;;;;4.30;2.50;;;19.00;49.30;;;;;;4977854;28;20438;-66
2022/09/04 07:30:58;;;;;;;4.45;1.92;;;19.10;48.90;;;;;;4976714;28;20054;-66
2022/09/04 07:33:49;;;;;;;7.90;2.30;;;19.30;48.50;;;;;;4984341;28;20038;-66
2022/09/04 07:36:50;;;;;;;3.83;2.03;;;19.40;48.70;;;;;;4989401;28;20070;-65
2022/09/04 07:39:28;;;;;;;4.90;2.20;;;19.50;48.60;;;;;;4983862;28;20077;-66
2022/09/04 07:42:14;;;;;;;3.65;2.30;;;19.60;48.60;;;;;;4976021;28;20494;-66
2022/09/04 07:44:50;;;;;;;4.97;1.98;;;19.70;48.40;;;;;;4981759;28;20034;-66
2022/09/04 07:47:48;;;;;;;4.97;2.30;;;19.80;48.40;;;;;;4982650;28;20043;-66
2022/09/04 07:50:30;;;;;;;2.80;1.95;;;19.90;48.40;;;;;;4943587;28;20069;-66
2022/09/04 07:53:24;;;;;;;3.33;2.20;;;20.00;48.20;;;;;;4975790;28;20050;-66
2022/09/04 07:55:56;;;;;;;5.57;2.28;;;20.10;48.20;;;;;;5009784;28;20092;-66
2022/09/04 07:59:08;;;;;;;5.65;2.33;;;20.30;48.20;;;;;;4978709;28;20517;-66
2022/09/04 08:02:04;;;;;;;3.60;2.30;;;20.40;48.10;;;;;;4994214;28;20038;-67
2022/09/04 08:04:38;;;;;;;5.60;2.38;;;20.60;47.90;;;;;;4977450;28;20516;-66
2022/09/04 08:07:11;;;;;;;5.28;2.78;;;20.80;47.80;;;;;;4985459;28;20043;-66
2022/09/04 08:09:57;;;;;;;4.90;2.35;;;20.90;47.30;;;;;;4975136;28;20047;-66
2022/09/04 08:12:25;;;;;;;3.75;2.38;;;21.00;47.00;;;;;;4975298;28;20043;-66
2022/09/04 08:15:04;;;;;;;3.45;2.20;;;21.10;47.10;;;;;;4981294;28;20145;-66
2022/09/04 08:17:58;;;;;;;6.30;2.28;;;21.10;46.90;;;;;;4983121;28;20045;-66
2022/09/04 08:20:42;;;;;;;5.25;2.45;;;21.30;47.50;;;;;;5007607;28;20062;-66
2022/09/04 08:23:26;;;;;;;;;;;21.40;47.50;;;;;;5011078;28;20121;-66
2022/09/04 08:26:26;;;;;;;4.20;2.33;;;21.50;47.80;;;;;;4992461;28;19918;-66
2022/09/04 08:29:23;;;;;;;3.72;2.20;;;21.70;47.50;;;;;;4981523;28;20082;-66
2022/09/04 08:32:18;;;;;;;7.78;2.55;;;21.90;47.20;;;;;;4976225;28;20564;-66
2022/09/04 08:35:12;;;;;;;4.88;2.20;;;22.10;46.80;;;;;;4981308;28;20097;-66
2022/09/04 08:38:08;;;;;;;3.80;2.60;;;22.20;47.10;;;;;;5009941;28;20122;-66
2022/09/04 08:40:49;;;;;;;3.50;2.42;;;22.40;46.80;;;;;;4975073;28;20154;-69
2022/09/04 08:43:34;;;;;;;4.40;2.58;;;22.50;46.70;;;;;;4984681;28;20078;-68
2022/09/04 08:46:43;;;;;;;5.15;2.42;;;22.60;46.90;;;;;;4976177;28;20051;-68
2022/09/04 08:49:17;;;;;;;5.15;2.35;;;22.80;46.70;;;;;;4976664;28;20052;-68
2022/09/04 08:52:02;;;;;;;4.93;2.65;;;22.80;46.40;;;;;;4980161;28;20049;-68
2022/09/04 08:54:49;;;;;;;6.90;2.58;;;23.00;46.40;;;;;;4980857;28;20057;-68
2022/09/04 08:57:49;;;;;;;6.82;2.65;;;23.00;46.60;;;;;;4986695;28;20039;-68
2022/09/04 09:00:29;;;;;;;4.00;2.53;;;23.20;46.20;;;;;;4985351;28;20434;-67
2022/09/04 09:03:20;;;;;;;5.80;2.58;;;23.30;46.50;;;;;;4974412;28;20514;-67
2022/09/04 09:06:17;;;;;;;3.00;2.10;;;23.50;46.40;;;;;;4981374;28;20050;-68
2022/09/04 09:08:57;;;;;;;5.40;3.15;;;23.60;46.40;;;;;;4986877;28;20050;-68
2022/09/04 09:11:51;;;;;;;5.43;2.50;;;23.80;45.80;;;;;;4975815;28;20043;-69
2022/09/04 09:15:05;;;;;;;4.72;2.50;;;23.90;45.50;;;;;;4979890;28;20154;-68
2022/09/04 09:17:58;;;;;;;3.20;2.58;;;24.00;45.20;;;;;;4934544;29;20075;-68
2022/09/04 09:20:28;;;;;;;3.92;2.72;;;24.00;45.30;;;;;;4935328;28;20101;-68
2022/09/04 09:23:17;;;;;;;4.03;2.45;;;24.10;45.30;;;;;;4978766;28;20049;-68
2022/09/04 09:26:05;;;;;;;3.45;2.30;;;24.20;45.10;;;;;;4980755;28;20046;-68
2022/09/04 09:28:49;;;;;;;4.07;2.53;;;24.20;45.30;;;;;;4975450;28;20501;-68
2022/09/04 09:31:33;;;;;;;;;;;24.30;45.20;;;;;;4977434;28;20802;-68
2022/09/04 09:34:17;;;;;;;5.57;2.47;;;24.30;45.20;;;;;;4976422;28;19972;-68
2022/09/04 09:37:05;;;;;;;6.25;2.88;;;24.40;45.20;;;;;;4984550;28;20039;-69
2022/09/04 09:39:49;;;;;;;3.92;2.30;;;24.50;44.90;;;;;;4974838;28;20070;-69
2022/09/04 09:42:49;;;;;;;3.55;2.20;;;24.60;45.20;;;;;;4990590;28;20046;-69
2022/09/04 09:45:24;;;;;;;3.40;2.28;;;24.70;44.50;;;;;;4977575;28;20049;-69
2022/09/04 09:48:14;;;;;;;3.65;2.03;;;24.80;44.30;;;;;;4973591;28;20080;-69
2022/09/04 09:51:04;;;;;;;10.07;2.97;;;25.00;44.20;;;;;;4961613;28;20057;-70
2022/09/04 09:53:48;;;;;;;4.80;2.13;;;25.10;43.90;;;;;;4991126;28;20050;-69
2022/09/04 09:57:05;;;;;;;4.18;1.98;;;25.20;43.90;;;;;;4974492;28;20053;-69
2022/09/04 09:59:46;;;;;;;5.22;2.00;;;25.20;43.40;;;;;;4955454;28;20442;-70
2022/09/04 10:02:25;;;;;;;3.63;2.10;;;25.10;43.10;;;;;;5006034;28;20042;-70
2022/09/04 10:05:28;;;;;;;2.83;1.90;;;25.10;43.50;;;;;;4988874;28;20051;-69
2022/09/04 10:08:23;;;;;;;2.97;1.87;;;25.20;43.20;;;;;;4981653;28;20092;-69
2022/09/04 10:11:38;;;;;;;3.17;1.90;;;25.30;43.50;;;;;;4940877;28;20056;-69
2022/09/04 10:14:16;;;;;;;3.53;2.15;;;25.40;43.50;;;;;;4968408;28;20398;-69
2022/09/04 10:17:17;;;;;;;3.47;1.92;;;25.40;43.50;;;;;;4973283;28;20116;-69
2022/09/04 10:20:19;;;;;;;4.55;2.03;;;25.40;43.80;;;;;;4973410;28;20079;-69
2022/09/04 10:22:58;;;;;;;3.45;1.90;;;25.50;43.30;;;;;;5008527;28;20049;-69
2022/09/04 10:25:53;;;;;;;3.58;2.28;;;25.40;43.50;;;;;;4983539;28;20038;-69
2022/09/04 10:28:54;;;;;;;2.28;1.60;;;25.40;43.30;;;;;;4980599;28;20402;-69
2022/09/04 10:31:38;;;;;;;3.08;1.77;;;25.40;44.20;;;;;;4975066;28;20047;-69
2022/09/04 10:34:38;;;;;;;2.35;1.60;;;25.40;44.00;;;;;;4979499;28;21763;-69
2022/09/04 10:37:34;;;;;;;3.85;1.90;;;25.50;44.10;;;;;;4987352;28;20094;-69
2022/09/04 10:40:42;;;;;;;4.38;2.03;;;25.60;43.60;;;;;;4986949;28;20569;-70
2022/09/04 10:43:43;;;;;;;2.40;2.00;;;25.70;43.80;;;;;;4988037;28;20398;-69
2022/09/04 10:46:21;;;;;;;5.05;2.20;;;25.70;43.80;;;;;;4949639;28;20138;-69
2022/09/04 10:49:16;;;;;;;2.35;1.83;;;25.70;43.70;;;;;;4987920;28;20049;-69
2022/09/04 10:51:48;;;;;;;3.65;2.00;;;25.80;43.90;;;;;;4988344;28;20048;-69
2022/09/04 10:54:53;;;;;;;4.88;1.63;;;25.90;44.00;;;;;;4989450;28;20034;-70
2022/09/04 10:57:40;;;;;;;3.15;2.30;;;26.00;44.00;;;;;;4972837;28;20085;-70
2022/09/04 11:00:11;;;;;;;5.20;2.67;;;26.10;43.00;;;;;;4980338;28;20105;-69
2022/09/04 11:03:14;;;;;;;3.17;1.92;;;26.10;43.60;;;;;;4964423;28;20046;-69
2022/09/04 11:06:01;;;;;;;4.03;2.13;;;26.10;43.40;;;;;;4978153;28;20489;-69
2022/09/04 11:08:38;;;;;;;3.38;1.98;;;26.20;43.10;;;;;;4972721;28;20038;-69
2022/09/04 11:11:22;;;;;;;6.03;2.30;;;26.20;42.90;;;;;;4984025;28;20426;-73
2022/09/04 11:13:55;;;;;;;;;;;26.30;43.10;;;;;;4975429;28;20142;-71
2022/09/04 11:16:32;;;;;;;4.30;2.05;;;26.30;42.90;;;;;;4989147;28;20317;-72
2022/09/04 11:19:19;;;;;;;2.78;1.55;;;26.50;43.20;;;;;;4985270;28;20130;-71
2022/09/04 11:22:08;;;;;;;3.13;1.70;;;26.60;42.90;;;;;;4966219;28;20039;-72
2022/09/04 11:24:58;;;;;;;4.80;2.08;;;26.70;42.60;;;;;;4973817;28;20156;-71
2022/09/04 11:27:55;;;;;;;4.97;1.80;;;26.80;42.50;;;;;;4971922;28;20557;-71
2022/09/04 11:30:31;;;;;;;5.43;1.80;;;26.80;42.40;;;;;;4986490;28;20483;-71
2022/09/04 11:33:16;;;;;;;2.17;1.50;;;26.90;42.50;;;;;;4991199;28;20503;-71
2022/09/04 11:36:04;;;;;;;2.17;1.67;;;27.00;42.10;;;;;;4983254;28;20047;-69
2022/09/04 11:38:54;;;;;;;4.00;1.90;;;27.00;42.00;;;;;;4974020;28;20047;-69
2022/09/04 11:42:11;;;;;;;4.53;1.70;;;27.00;41.90;;;;;;4975514;28;20051;-70
2022/09/04 11:44:48;;;;;;;2.97;1.73;;;27.10;42.10;;;;;;4931410;29;20206;-69
2022/09/04 11:47:58;;;;;;;3.78;1.67;;;27.10;42.00;;;;;;4979796;28;20057;-69
2022/09/04 11:50:43;;;;;;;3.28;1.63;;;27.10;41.80;;;;;;4947740;28;20054;-69
2022/09/04 11:53:27;;;;;;;2.10;1.60;;;27.20;41.70;;;;;;4993768;28;20046;-70
2022/09/04 11:56:19;;;;;;;2.63;1.90;;;27.20;41.70;;;;;;4984461;28;20046;-69
2022/09/04 11:59:23;;;;;;;3.15;2.13;;;27.10;41.50;;;;;;4988665;28;20046;-71
2022/09/04 12:02:24;;;;;;;2.17;1.80;;;27.20;41.50;;;;;;4953215;28;20058;-72
2022/09/04 12:05:11;;;;;;;2.92;2.03;;;27.20;41.70;;;;;;4978497;28;20490;-69
2022/09/04 12:07:50;;;;;;;3.22;1.88;;;27.30;41.80;;;;;;4992710;28;20046;-71
2022/09/04 12:10:33;;;;;;;3.22;1.60;;;27.40;41.50;;;;;;4989001;28;20720;-69
2022/09/04 12:13:10;;;;;;;3.13;1.90;;;27.40;41.50;;;;;;4982115;28;20046;-67
2022/09/04 12:16:00;;;;;;;2.20;1.50;;;27.40;41.50;;;;;;4970481;28;20073;-67
2022/09/04 12:19:04;;;;;;;3.10;1.63;;;27.50;41.30;;;;;;4974413;28;20121;-67
2022/09/04 12:21:58;;;;;;;3.50;1.50;;;27.50;41.20;;;;;;5011903;28;20062;-67
2022/09/04 12:24:26;;;;;;;3.20;1.80;;;27.60;41.50;;;;;;5001612;28;20054;-67
2022/09/04 12:27:07;;;;;;;3.33;1.80;;;27.60;40.90;;;;;;4994476;28;20050;-67
2022/09/04 12:29:52;;;;;;;7.88;1.90;;;27.70;41.10;;;;;;4994488;28;20057;-67
2022/09/04 12:32:42;;;;;;;3.20;1.90;;;27.60;41.00;;;;;;4991366;28;20044;-67
2022/09/04 12:35:40;;;;;;;3.40;1.70;;;27.60;41.00;;;;;;4998083;28;20111;-68
2022/09/04 12:38:24;;;;;;;3.28;1.70;;;27.50;41.00;;;;;;4974907;28;20034;-68
2022/09/04 12:41:19;;;;;;;3.20;1.38;;;27.50;40.90;;;;;;4974783;28;20055;-68
2022/09/04 12:44:00;;;;;;;2.42;1.55;;;27.50;41.10;;;;;;4974828;28;20431;-68
2022/09/04 12:46:43;;;;;;;1.30;1.20;;;27.50;40.80;;;;;;4975845;28;20464;-68
2022/09/04 12:49:18;;;;;;;2.70;2.03;;;27.60;41.20;;;;;;4974191;28;20057;-68
2022/09/04 12:51:52;;;;;;;3.38;1.30;;;27.60;40.60;;;;;;4978105;28;20042;-67
2022/09/04 12:55:02;;;;;;;4.05;1.80;;;27.70;40.90;;;;;;4988630;28;20390;-67
2022/09/04 12:57:57;;;;;;;2.40;1.80;;;27.80;41.20;;;;;;4983984;28;20077;-67
2022/09/04 13:00:27;;;;;;;2.22;1.63;;;27.90;40.60;;;;;;4967126;28;20062;-68
2022/09/04 13:03:18;;;;;;;2.97;1.67;;;28.00;40.50;;;;;;4959138;28;20069;-67
2022/09/04 13:06:19;;;;;;;2.70;1.90;;;28.00;40.60;;;;;;4982236;28;20463;-68
2022/09/04 13:09:09;;;;;;;2.97;2.03;;;28.10;40.30;;;;;;5001004;28;20046;-67
2022/09/04 13:11:55;;;;;;;2.28;1.73;;;28.10;40.00;;;;;;5011122;28;20042;-67
2022/09/04 13:14:47;;;;;;;2.65;1.80;;;28.20;40.20;;;;;;4981322;28;20034;-67
2022/09/04 13:17:42;;;;;;;2.85;1.95;;;28.20;40.40;;;;;;4974556;28;20554;-68
2022/09/04 13:20:14;;;;;;;1.85;1.70;;;28.20;40.70;;;;;;4974052;28;20047;-68
2022/09/04 13:23:03;;;;;;;3.13;1.90;;;28.30;40.70;;;;;;4975364;28;20039;-69
2022/09/04 13:25:41;;;;;;;2.20;1.80;;;28.30;40.10;;;;;;4985220;28;20034;-68
2022/09/04 13:28:15;;;;;;;3.38;1.88;;;28.30;40.00;;;;;;4983781;28;20031;-68
2022/09/04 13:31:19;;;;;;;3.65;1.85;;;28.30;39.70;;;;;;4974039;28;20398;-68
2022/09/04 13:34:12;;;;;;;3.78;2.25;;;28.40;40.00;;;;;;4979771;28;20105;-67
2022/09/04 13:37:03;;;;;;;3.03;2.00;;;28.40;40.00;;;;;;4983629;28;20038;-67
2022/09/04 13:39:34;;;;;;;2.47;1.88;;;28.40;39.70;;;;;;4993201;28;20043;-67
2022/09/04 13:42:23;;;;;;;2.40;1.80;;;28.40;39.70;;;;;;4976564;28;20534;-68
2022/09/04 13:45:02;;;;;;;2.67;1.95;;;28.40;39.30;;;;;;4974696;28;20046;-67
2022/09/04 13:47:38;;;;;;;1.90;1.50;;;28.30;39.80;;;;;;5008650;28;20525;-67
2022/09/04 13:50:20;;;;;;;2.70;2.15;;;28.10;39.90;;;;;;4984799;28;20046;-67
2022/09/04 13:52:58;;;;;;;2.92;2.15;;;28.30;40.00;;;;;;4973494;28;20049;-67
2022/09/04 13:55:28;;;;;;;3.40;2.05;;;28.30;40.00;;;;;;4978508;28;20120;-67
2022/09/04 13:58:26;;;;;;;2.83;2.33;;;28.30;39.80;;;;;;4987826;28;20041;-67
2022/09/04 14:00:57;;;;;;;2.00;1.70;;;28.40;39.40;;;;;;4973188;28;20051;-70
2022/09/04 14:03:35;;;;;;;4.10;2.00;;;28.40;39.60;;;;;;4986289;28;20406;-70
2022/09/04 14:06:04;;;;;;;3.88;2.10;;;28.40;39.80;;;;;;4960699;28;20101;-70
2022/09/04 14:08:33;;;;;;;4.70;2.13;;;28.50;40.00;;;;;;4973452;28;20039;-71
2022/09/04 14:11:05;;;;;;;2.65;2.22;;;28.50;39.20;;;;;;4980499;28;20134;-71
2022/09/04 14:14:02;;;;;;;3.87;2.00;;;28.50;39.40;;;;;;4990789;28;20046;-71
2022/09/04 14:16:35;;;;;;;5.03;2.50;;;28.50;39.30;;;;;;4972364;28;20039;-71
2022/09/04 14:19:10;;;;;;;5.47;2.15;;;28.50;39.40;;;;;;4992233;28;20046;-71
2022/09/04 14:22:14;;;;;;;4.13;2.08;;;28.50;39.50;;;;;;4991276;28;20050;-72
2022/09/04 14:25:01;;;;;;;2.63;1.92;;;28.70;39.20;;;;;;4982031;28;20065;-71
2022/09/04 14:27:50;;;;;;;2.85;2.30;;;28.70;39.20;;;;;;4973274;28;20133;-69